sensor_id;sensor_type;location;lat;lon;timestamp;P1;durP1;ratioP1;P2;durP2;ratioP2
33104;SDS011;19476;51.448;6.674;2023-07-20T00:01:58;2.63;;;1.35;;
33104;SDS011;19476;51.448;6.674;2023-07-20T00:04:24;3.28;;;1.73;;
33104;SDS011;19476;51.448;6.674;2023-07-20T00:06:50;3.33;;;1.92;;
33104;SDS011;19476;51.448;6.674;2023-07-20T00:09:16;3.67;;;1.65;;
33104;SDS011;19476;51.448;6.674;2023-07-20T00:11:47;2.88;;;2.03;;
33104;SDS011;19476;51.448;6.674;2023-07-20T00:14:16;2.92;;;1.63;;
33104;SDS011;19476;51.448;6.674;2023-07-20T00:16:42;2.55;;;1.65;;
33104;SDS011;19476;51.448;6.674;2023-07-20T00:19:07;3.50;;;1.65;;
33104;SDS011;19476;51.448;6.674;2023-07-20T00:21:35;5.32;;;2.10;;
33104;SDS011;19476;51.448;6.674;2023-07-20T00:24:01;4.65;;;1.40;;
33104;SDS011;19476;51.448;6.674;2023-07-20T00:26:26;4.88;;;1.75;;
33104;SDS011;19476;51.448;6.674;2023-07-20T00:28:52;4.65;;;1.70;;
33104;SDS011;19476;51.448;6.674;2023-07-20T00:31:18;2.85;;;1.48;;
33104;SDS011;19476;51.448;6.674;2023-07-20T00:33:44;3.33;;;1.58;;
33104;SDS011;19476;51.448;6.674;2023-07-20T00:36:09;3.85;;;1.65;;
33104;SDS011;19476;51.448;6.674;2023-07-20T00:38:35;3.63;;;1.58;;
33104;SDS011;19476;51.448;6.674;2023-07-20T00:41:01;2.35;;;1.48;;
33104;SDS011;19476;51.448;6.674;2023-07-20T00:43:27;2.75;;;1.48;;
33104;SDS011;19476;51.448;6.674;2023-07-20T00:45:53;4.28;;;1.80;;
33104;SDS011;19476;51.448;6.674;2023-07-20T00:48:19;2.17;;;1.60;;
33104;SDS011;19476;51.448;6.674;2023-07-20T00:50:45;2.95;;;1.60;;
33104;SDS011;19476;51.448;6.674;2023-07-20T00:53:12;3.53;;;1.70;;
33104;SDS011;19476;51.448;6.674;2023-07-20T00:55:37;3.60;;;1.60;;
33104;SDS011;19476;51.448;6.674;2023-07-20T00:58:03;2.95;;;1.40;;
33104;SDS011;19476;51.448;6.674;2023-07-20T01:00:30;3.38;;;1.70;;
33104;SDS011;19476;51.448;6.674;2023-07-20T01:02:55;3.88;;;1.75;;
33104;SDS011;19476;51.448;6.674;2023-07-20T01:05:22;3.72;;;1.60;;
33104;SDS011;19476;51.448;6.674;2023-07-20T01:08:00;2.92;;;1.50;;
33104;SDS011;19476;51.448;6.674;2023-07-20T01:10:46;4.13;;;1.67;;
33104;SDS011;19476;51.448;6.674;2023-07-20T01:13:36;3.30;;;1.83;;
33104;SDS011;19476;51.448;6.674;2023-07-20T01:16:03;2.72;;;1.60;;
33104;SDS011;19476;51.448;6.674;2023-07-20T01:18:29;2.70;;;1.73;;
33104;SDS011;19476;51.448;6.674;2023-07-20T01:20:57;4.45;;;1.90;;
33104;SDS011;19476;51.448;6.674;2023-07-20T01:25:59;4.68;;;1.58;;
33104;SDS011;19476;51.448;6.674;2023-07-20T01:29:22;3.30;;;1.75;;
33104;SDS011;19476;51.448;6.674;2023-07-20T01:31:32;3.03;;;1.67;;
33104;SDS011;19476;51.448;6.674;2023-07-20T01:34:00;5.40;;;2.30;;
33104;SDS011;19476;51.448;6.674;2023-07-20T01:36:29;3.55;;;1.88;;
33104;SDS011;19476;51.448;6.674;2023-07-20T01:38:58;4.88;;;2.30;;
33104;SDS011;19476;51.448;6.674;2023-07-20T01:41:24;3.50;;;2.03;;
33104;SDS011;19476;51.448;6.674;2023-07-20T01:43:50;5.72;;;2.40;;
33104;SDS011;19476;51.448;6.674;2023-07-20T01:46:15;2.95;;;1.92;;
33104;SDS011;19476;51.448;6.674;2023-07-20T01:48:41;3.53;;;2.00;;
33104;SDS011;19476;51.448;6.674;2023-07-20T01:51:07;3.70;;;1.95;;
33104;SDS011;19476;51.448;6.674;2023-07-20T01:53:33;3.97;;;1.83;;
33104;SDS011;19476;51.448;6.674;2023-07-20T01:55:59;3.35;;;2.13;;
33104;SDS011;19476;51.448;6.674;2023-07-20T01:58:25;4.53;;;1.80;;
33104;SDS011;19476;51.448;6.674;2023-07-20T02:00:51;4.72;;;2.20;;
33104;SDS011;19476;51.448;6.674;2023-07-20T02:03:17;2.72;;;1.85;;
33104;SDS011;19476;51.448;6.674;2023-07-20T02:05:42;4.57;;;2.40;;
33104;SDS011;19476;51.448;6.674;2023-07-20T02:08:08;4.28;;;2.58;;
33104;SDS011;19476;51.448;6.674;2023-07-20T02:10:35;4.20;;;2.00;;
33104;SDS011;19476;51.448;6.674;2023-07-20T02:13:01;5.47;;;2.47;;
33104;SDS011;19476;51.448;6.674;2023-07-20T02:15:26;4.75;;;2.17;;
33104;SDS011;19476;51.448;6.674;2023-07-20T02:17:53;4.03;;;2.00;;
33104;SDS011;19476;51.448;6.674;2023-07-20T02:20:19;4.03;;;2.05;;
33104;SDS011;19476;51.448;6.674;2023-07-20T02:22:45;3.20;;;1.90;;
33104;SDS011;19476;51.448;6.674;2023-07-20T02:25:11;4.55;;;2.50;;
33104;SDS011;19476;51.448;6.674;2023-07-20T02:27:37;4.72;;;2.28;;
33104;SDS011;19476;51.448;6.674;2023-07-20T02:30:04;7.25;;;3.17;;
33104;SDS011;19476;51.448;6.674;2023-07-20T02:32:30;4.13;;;2.05;;
33104;SDS011;19476;51.448;6.674;2023-07-20T02:34:59;5.00;;;2.80;;
33104;SDS011;19476;51.448;6.674;2023-07-20T02:37:25;5.30;;;2.83;;
33104;SDS011;19476;51.448;6.674;2023-07-20T02:39:51;6.05;;;3.00;;
33104;SDS011;19476;51.448;6.674;2023-07-20T02:42:17;5.00;;;2.25;;
33104;SDS011;19476;51.448;6.674;2023-07-20T02:44:42;5.25;;;2.78;;
33104;SDS011;19476;51.448;6.674;2023-07-20T02:47:08;5.32;;;3.00;;
33104;SDS011;19476;51.448;6.674;2023-07-20T02:49:34;5.28;;;3.10;;
33104;SDS011;19476;51.448;6.674;2023-07-20T02:52:00;4.20;;;2.50;;
33104;SDS011;19476;51.448;6.674;2023-07-20T02:54:26;6.65;;;2.85;;
33104;SDS011;19476;51.448;6.674;2023-07-20T02:56:52;5.18;;;2.70;;
33104;SDS011;19476;51.448;6.674;2023-07-20T02:59:17;3.97;;;2.50;;
33104;SDS011;19476;51.448;6.674;2023-07-20T03:01:43;5.53;;;3.22;;
33104;SDS011;19476;51.448;6.674;2023-07-20T03:04:09;5.28;;;2.78;;
33104;SDS011;19476;51.448;6.674;2023-07-20T03:06:35;3.97;;;2.50;;
33104;SDS011;19476;51.448;6.674;2023-07-20T03:09:02;4.55;;;2.80;;
33104;SDS011;19476;51.448;6.674;2023-07-20T03:11:28;5.63;;;3.00;;
33104;SDS011;19476;51.448;6.674;2023-07-20T03:13:54;5.65;;;2.67;;
33104;SDS011;19476;51.448;6.674;2023-07-20T03:16:21;4.15;;;2.25;;
33104;SDS011;19476;51.448;6.674;2023-07-20T03:21:15;4.80;;;2.75;;
33104;SDS011;19476;51.448;6.674;2023-07-20T03:23:41;3.60;;;2.45;;
33104;SDS011;19476;51.448;6.674;2023-07-20T03:26:07;5.22;;;2.83;;
33104;SDS011;19476;51.448;6.674;2023-07-20T03:28:34;4.60;;;2.70;;
33104;SDS011;19476;51.448;6.674;2023-07-20T03:31:00;6.45;;;2.92;;
33104;SDS011;19476;51.448;6.674;2023-07-20T03:33:26;5.00;;;2.95;;
33104;SDS011;19476;51.448;6.674;2023-07-20T03:35:54;6.93;;;3.22;;
33104;SDS011;19476;51.448;6.674;2023-07-20T03:38:21;5.38;;;2.95;;
33104;SDS011;19476;51.448;6.674;2023-07-20T03:40:50;5.90;;;3.28;;
33104;SDS011;19476;51.448;6.674;2023-07-20T03:43:17;8.10;;;3.55;;
33104;SDS011;19476;51.448;6.674;2023-07-20T03:45:43;6.57;;;3.60;;
33104;SDS011;19476;51.448;6.674;2023-07-20T03:48:10;4.97;;;2.85;;
33104;SDS011;19476;51.448;6.674;2023-07-20T03:50:36;6.25;;;3.40;;
33104;SDS011;19476;51.448;6.674;2023-07-20T03:53:02;4.32;;;2.70;;
33104;SDS011;19476;51.448;6.674;2023-07-20T03:55:28;8.32;;;3.97;;
33104;SDS011;19476;51.448;6.674;2023-07-20T03:57:55;6.18;;;3.22;;
33104;SDS011;19476;51.448;6.674;2023-07-20T04:00:21;7.15;;;4.28;;
33104;SDS011;19476;51.448;6.674;2023-07-20T04:02:47;6.47;;;3.92;;
33104;SDS011;19476;51.448;6.674;2023-07-20T04:05:13;5.88;;;3.60;;
33104;SDS011;19476;51.448;6.674;2023-07-20T04:07:38;6.72;;;3.75;;
33104;SDS011;19476;51.448;6.674;2023-07-20T04:10:04;5.50;;;3.70;;
33104;SDS011;19476;51.448;6.674;2023-07-20T04:12:31;6.30;;;3.85;;
33104;SDS011;19476;51.448;6.674;2023-07-20T04:14:56;6.70;;;3.97;;
33104;SDS011;19476;51.448;6.674;2023-07-20T04:17:22;6.05;;;3.38;;
33104;SDS011;19476;51.448;6.674;2023-07-20T04:19:48;8.10;;;4.28;;
33104;SDS011;19476;51.448;6.674;2023-07-20T04:22:14;5.85;;;4.10;;
33104;SDS011;19476;51.448;6.674;2023-07-20T04:24:42;8.63;;;5.15;;
33104;SDS011;19476;51.448;6.674;2023-07-20T04:27:08;6.35;;;4.15;;
33104;SDS011;19476;51.448;6.674;2023-07-20T04:29:34;6.03;;;4.10;;
33104;SDS011;19476;51.448;6.674;2023-07-20T04:32:00;8.02;;;4.18;;
33104;SDS011;19476;51.448;6.674;2023-07-20T04:34:25;6.75;;;4.53;;
33104;SDS011;19476;51.448;6.674;2023-07-20T04:36:51;6.97;;;4.60;;
33104;SDS011;19476;51.448;6.674;2023-07-20T04:39:17;7.15;;;4.38;;
33104;SDS011;19476;51.448;6.674;2023-07-20T04:41:43;7.43;;;4.28;;
33104;SDS011;19476;51.448;6.674;2023-07-20T04:44:08;6.80;;;4.50;;
33104;SDS011;19476;51.448;6.674;2023-07-20T04:46:34;8.23;;;5.22;;
33104;SDS011;19476;51.448;6.674;2023-07-20T04:49:00;6.43;;;4.18;;
33104;SDS011;19476;51.448;6.674;2023-07-20T04:51:27;6.03;;;3.72;;
33104;SDS011;19476;51.448;6.674;2023-07-20T04:53:55;5.70;;;3.97;;
33104;SDS011;19476;51.448;6.674;2023-07-20T04:56:21;7.63;;;4.00;;
33104;SDS011;19476;51.448;6.674;2023-07-20T04:58:48;7.65;;;4.57;;
33104;SDS011;19476;51.448;6.674;2023-07-20T05:01:14;7.55;;;4.43;;
33104;SDS011;19476;51.448;6.674;2023-07-20T05:03:40;6.72;;;4.13;;
33104;SDS011;19476;51.448;6.674;2023-07-20T05:06:05;6.28;;;3.92;;
33104;SDS011;19476;51.448;6.674;2023-07-20T05:08:31;5.47;;;4.07;;
33104;SDS011;19476;51.448;6.674;2023-07-20T05:10:57;5.72;;;3.60;;
33104;SDS011;19476;51.448;6.674;2023-07-20T05:13:24;5.15;;;3.55;;
33104;SDS011;19476;51.448;6.674;2023-07-20T05:15:53;5.75;;;3.47;;
33104;SDS011;19476;51.448;6.674;2023-07-20T05:18:19;5.45;;;3.13;;
33104;SDS011;19476;51.448;6.674;2023-07-20T05:20:49;5.50;;;3.33;;
33104;SDS011;19476;51.448;6.674;2023-07-20T05:23:18;6.10;;;3.58;;
33104;SDS011;19476;51.448;6.674;2023-07-20T05:25:56;4.95;;;3.28;;
33104;SDS011;19476;51.448;6.674;2023-07-20T05:28:23;5.43;;;3.33;;
33104;SDS011;19476;51.448;6.674;2023-07-20T05:30:50;5.35;;;3.58;;
33104;SDS011;19476;51.448;6.674;2023-07-20T05:33:20;4.72;;;3.40;;
33104;SDS011;19476;51.448;6.674;2023-07-20T05:35:46;5.38;;;3.72;;
33104;SDS011;19476;51.448;6.674;2023-07-20T05:38:12;5.82;;;4.00;;
33104;SDS011;19476;51.448;6.674;2023-07-20T05:40:41;6.10;;;3.65;;
33104;SDS011;19476;51.448;6.674;2023-07-20T05:43:10;5.18;;;3.58;;
33104;SDS011;19476;51.448;6.674;2023-07-20T05:45:36;4.80;;;3.17;;
33104;SDS011;19476;51.448;6.674;2023-07-20T05:48:02;5.50;;;3.20;;
33104;SDS011;19476;51.448;6.674;2023-07-20T05:50:28;4.45;;;2.90;;
33104;SDS011;19476;51.448;6.674;2023-07-20T05:52:54;5.22;;;3.17;;
33104;SDS011;19476;51.448;6.674;2023-07-20T05:55:20;4.88;;;3.08;;
33104;SDS011;19476;51.448;6.674;2023-07-20T05:57:46;5.05;;;3.20;;
33104;SDS011;19476;51.448;6.674;2023-07-20T06:00:13;6.40;;;3.92;;
33104;SDS011;19476;51.448;6.674;2023-07-20T06:02:39;6.85;;;3.55;;
33104;SDS011;19476;51.448;6.674;2023-07-20T06:05:06;4.80;;;2.80;;
33104;SDS011;19476;51.448;6.674;2023-07-20T06:07:36;4.65;;;2.67;;
33104;SDS011;19476;51.448;6.674;2023-07-20T06:10:02;4.15;;;2.70;;
33104;SDS011;19476;51.448;6.674;2023-07-20T06:12:29;4.13;;;2.30;;
33104;SDS011;19476;51.448;6.674;2023-07-20T06:14:54;4.40;;;2.47;;
33104;SDS011;19476;51.448;6.674;2023-07-20T06:17:20;3.70;;;1.90;;
33104;SDS011;19476;51.448;6.674;2023-07-20T06:19:46;3.10;;;1.77;;
33104;SDS011;19476;51.448;6.674;2023-07-20T06:22:12;2.20;;;1.45;;
33104;SDS011;19476;51.448;6.674;2023-07-20T06:24:37;3.10;;;1.63;;
33104;SDS011;19476;51.448;6.674;2023-07-20T06:27:03;2.90;;;1.63;;
33104;SDS011;19476;51.448;6.674;2023-07-20T06:29:30;3.28;;;1.67;;
33104;SDS011;19476;51.448;6.674;2023-07-20T06:31:56;2.40;;;1.23;;
33104;SDS011;19476;51.448;6.674;2023-07-20T06:34:22;7.63;;;1.30;;
33104;SDS011;19476;51.448;6.674;2023-07-20T06:36:48;2.00;;;1.27;;
33104;SDS011;19476;51.448;6.674;2023-07-20T06:39:14;1.83;;;1.10;;
33104;SDS011;19476;51.448;6.674;2023-07-20T06:41:40;1.55;;;1.17;;
33104;SDS011;19476;51.448;6.674;2023-07-20T06:44:05;1.45;;;0.80;;
33104;SDS011;19476;51.448;6.674;2023-07-20T06:46:32;1.67;;;0.95;;
33104;SDS011;19476;51.448;6.674;2023-07-20T06:48:58;1.30;;;0.80;;
33104;SDS011;19476;51.448;6.674;2023-07-20T06:51:24;1.48;;;0.77;;
33104;SDS011;19476;51.448;6.674;2023-07-20T06:53:50;1.50;;;0.88;;
33104;SDS011;19476;51.448;6.674;2023-07-20T06:56:16;0.80;;;0.80;;
33104;SDS011;19476;51.448;6.674;2023-07-20T06:58:41;1.55;;;1.00;;
33104;SDS011;19476;51.448;6.674;2023-07-20T07:01:07;1.23;;;0.82;;
33104;SDS011;19476;51.448;6.674;2023-07-20T07:03:33;1.00;;;0.90;;
33104;SDS011;19476;51.448;6.674;2023-07-20T07:06:00;2.22;;;1.30;;
33104;SDS011;19476;51.448;6.674;2023-07-20T07:08:25;1.67;;;1.20;;
33104;SDS011;19476;51.448;6.674;2023-07-20T07:10:52;2.17;;;1.05;;
33104;SDS011;19476;51.448;6.674;2023-07-20T07:13:18;3.60;;;1.38;;
33104;SDS011;19476;51.448;6.674;2023-07-20T07:15:45;1.17;;;0.90;;
33104;SDS011;19476;51.448;6.674;2023-07-20T07:18:11;1.27;;;0.80;;
33104;SDS011;19476;51.448;6.674;2023-07-20T07:20:37;1.23;;;0.90;;
33104;SDS011;19476;51.448;6.674;2023-07-20T07:23:02;2.00;;;1.25;;
33104;SDS011;19476;51.448;6.674;2023-07-20T07:25:28;3.38;;;1.70;;
33104;SDS011;19476;51.448;6.674;2023-07-20T07:27:55;4.07;;;1.60;;
33104;SDS011;19476;51.448;6.674;2023-07-20T07:30:21;2.50;;;1.30;;
33104;SDS011;19476;51.448;6.674;2023-07-20T07:32:47;1.95;;;1.30;;
33104;SDS011;19476;51.448;6.674;2023-07-20T07:35:13;2.00;;;1.13;;
33104;SDS011;19476;51.448;6.674;2023-07-20T07:37:39;2.85;;;1.63;;
33104;SDS011;19476;51.448;6.674;2023-07-20T07:40:05;2.25;;;1.60;;
33104;SDS011;19476;51.448;6.674;2023-07-20T07:42:32;2.25;;;1.50;;
33104;SDS011;19476;51.448;6.674;2023-07-20T07:44:58;2.47;;;1.70;;
33104;SDS011;19476;51.448;6.674;2023-07-20T07:47:24;2.42;;;1.73;;
33104;SDS011;19476;51.448;6.674;2023-07-20T07:49:50;2.13;;;1.40;;
33104;SDS011;19476;51.448;6.674;2023-07-20T07:52:16;1.83;;;1.17;;
33104;SDS011;19476;51.448;6.674;2023-07-20T07:54:42;3.45;;;1.95;;
33104;SDS011;19476;51.448;6.674;2023-07-20T07:57:07;2.80;;;1.83;;
33104;SDS011;19476;51.448;6.674;2023-07-20T07:59:33;3.28;;;2.03;;
33104;SDS011;19476;51.448;6.674;2023-07-20T08:02:04;2.80;;;1.65;;
33104;SDS011;19476;51.448;6.674;2023-07-20T08:04:31;2.92;;;1.30;;
33104;SDS011;19476;51.448;6.674;2023-07-20T08:06:56;2.17;;;1.02;;
33104;SDS011;19476;51.448;6.674;2023-07-20T08:09:24;2.65;;;1.33;;
33104;SDS011;19476;51.448;6.674;2023-07-20T08:11:50;2.80;;;1.20;;
33104;SDS011;19476;51.448;6.674;2023-07-20T08:14:16;1.40;;;1.00;;
33104;SDS011;19476;51.448;6.674;2023-07-20T08:16:42;2.05;;;1.02;;
33104;SDS011;19476;51.448;6.674;2023-07-20T08:19:08;2.33;;;1.20;;
33104;SDS011;19476;51.448;6.674;2023-07-20T08:21:34;2.55;;;1.10;;
33104;SDS011;19476;51.448;6.674;2023-07-20T08:24:00;1.90;;;1.20;;
33104;SDS011;19476;51.448;6.674;2023-07-20T08:26:25;1.90;;;1.25;;
33104;SDS011;19476;51.448;6.674;2023-07-20T08:28:51;2.78;;;0.75;;
33104;SDS011;19476;51.448;6.674;2023-07-20T08:31:17;1.73;;;0.77;;
33104;SDS011;19476;51.448;6.674;2023-07-20T08:33:43;1.88;;;0.68;;
33104;SDS011;19476;51.448;6.674;2023-07-20T08:36:09;0.65;;;0.40;;
33104;SDS011;19476;51.448;6.674;2023-07-20T08:38:35;1.20;;;0.57;;
33104;SDS011;19476;51.448;6.674;2023-07-20T08:41:00;0.50;;;0.40;;
33104;SDS011;19476;51.448;6.674;2023-07-20T08:43:27;0.50;;;0.40;;
33104;SDS011;19476;51.448;6.674;2023-07-20T08:45:56;0.65;;;0.60;;
33104;SDS011;19476;51.448;6.674;2023-07-20T08:48:23;1.42;;;0.70;;
33104;SDS011;19476;51.448;6.674;2023-07-20T08:50:53;1.85;;;0.85;;
33104;SDS011;19476;51.448;6.674;2023-07-20T08:53:20;0.95;;;0.50;;
33104;SDS011;19476;51.448;6.674;2023-07-20T08:55:46;0.70;;;0.60;;
33104;SDS011;19476;51.448;6.674;2023-07-20T08:58:15;1.85;;;0.80;;
33104;SDS011;19476;51.448;6.674;2023-07-20T09:00:42;2.00;;;0.50;;
33104;SDS011;19476;51.448;6.674;2023-07-20T09:03:11;0.68;;;0.50;;
33104;SDS011;19476;51.448;6.674;2023-07-20T09:05:37;0.93;;;0.50;;
33104;SDS011;19476;51.448;6.674;2023-07-20T09:08:05;1.33;;;0.70;;
33104;SDS011;19476;51.448;6.674;2023-07-20T09:10:31;0.77;;;0.60;;
33104;SDS011;19476;51.448;6.674;2023-07-20T09:12:57;0.65;;;0.45;;
33104;SDS011;19476;51.448;6.674;2023-07-20T09:15:22;0.40;;;0.35;;
33104;SDS011;19476;51.448;6.674;2023-07-20T09:17:49;1.02;;;0.47;;
33104;SDS011;19476;51.448;6.674;2023-07-20T09:20:16;0.82;;;0.50;;
33104;SDS011;19476;51.448;6.674;2023-07-20T09:22:43;0.43;;;0.40;;
33104;SDS011;19476;51.448;6.674;2023-07-20T09:25:13;0.95;;;0.50;;
33104;SDS011;19476;51.448;6.674;2023-07-20T09:27:40;0.60;;;0.40;;
33104;SDS011;19476;51.448;6.674;2023-07-20T09:30:07;2.33;;;0.50;;
33104;SDS011;19476;51.448;6.674;2023-07-20T09:32:43;0.70;;;0.52;;
33104;SDS011;19476;51.448;6.674;2023-07-20T09:35:14;0.68;;;0.50;;
33104;SDS011;19476;51.448;6.674;2023-07-20T09:37:51;0.50;;;0.50;;
33104;SDS011;19476;51.448;6.674;2023-07-20T09:40:28;5.50;;;0.80;;
33104;SDS011;19476;51.448;6.674;2023-07-20T09:42:55;0.60;;;0.60;;
33104;SDS011;19476;51.448;6.674;2023-07-20T09:45:31;0.90;;;0.70;;
33104;SDS011;19476;51.448;6.674;2023-07-20T09:48:05;0.60;;;0.60;;
33104;SDS011;19476;51.448;6.674;2023-07-20T09:50:41;1.30;;;0.70;;
33104;SDS011;19476;51.448;6.674;2023-07-20T09:53:11;1.23;;;0.55;;
33104;SDS011;19476;51.448;6.674;2023-07-20T09:55:40;0.60;;;0.50;;
33104;SDS011;19476;51.448;6.674;2023-07-20T09:58:09;0.70;;;0.52;;
33104;SDS011;19476;51.448;6.674;2023-07-20T10:00:36;0.40;;;0.40;;
33104;SDS011;19476;51.448;6.674;2023-07-20T10:03:04;1.00;;;0.50;;
33104;SDS011;19476;51.448;6.674;2023-07-20T10:05:34;1.02;;;0.50;;
33104;SDS011;19476;51.448;6.674;2023-07-20T10:08:04;0.70;;;0.47;;
33104;SDS011;19476;51.448;6.674;2023-07-20T10:10:33;0.95;;;0.50;;
33104;SDS011;19476;51.448;6.674;2023-07-20T10:13:01;0.95;;;0.60;;
33104;SDS011;19476;51.448;6.674;2023-07-20T10:15:36;0.55;;;0.47;;
33104;SDS011;19476;51.448;6.674;2023-07-20T10:20:39;1.30;;;0.60;;
33104;SDS011;19476;51.448;6.674;2023-07-20T10:23:09;1.05;;;0.50;;
33104;SDS011;19476;51.448;6.674;2023-07-20T10:25:36;0.57;;;0.40;;
33104;SDS011;19476;51.448;6.674;2023-07-20T10:28:04;0.63;;;0.50;;
33104;SDS011;19476;51.448;6.674;2023-07-20T10:30:31;0.63;;;0.40;;
33104;SDS011;19476;51.448;6.674;2023-07-20T10:33:03;0.60;;;0.50;;
33104;SDS011;19476;51.448;6.674;2023-07-20T10:38:03;0.70;;;0.30;;
33104;SDS011;19476;51.448;6.674;2023-07-20T10:43:02;1.65;;;0.38;;
33104;SDS011;19476;51.448;6.674;2023-07-20T10:45:35;0.50;;;0.30;;
33104;SDS011;19476;51.448;6.674;2023-07-20T10:48:22;0.47;;;0.30;;
33104;SDS011;19476;51.448;6.674;2023-07-20T10:51:08;0.52;;;0.50;;
33104;SDS011;19476;51.448;6.674;2023-07-20T10:53:39;1.25;;;0.52;;
33104;SDS011;19476;51.448;6.674;2023-07-20T10:56:06;1.52;;;0.50;;
33104;SDS011;19476;51.448;6.674;2023-07-20T10:58:39;1.05;;;0.40;;
33104;SDS011;19476;51.448;6.674;2023-07-20T11:01:06;0.75;;;0.30;;
33104;SDS011;19476;51.448;6.674;2023-07-20T11:03:34;0.57;;;0.30;;
33104;SDS011;19476;51.448;6.674;2023-07-20T11:11:43;0.63;;;0.43;;
33104;SDS011;19476;51.448;6.674;2023-07-20T11:14:23;0.70;;;0.50;;
33104;SDS011;19476;51.448;6.674;2023-07-20T11:16:50;1.75;;;0.50;;
33104;SDS011;19476;51.448;6.674;2023-07-20T11:19:18;0.50;;;0.30;;
33104;SDS011;19476;51.448;6.674;2023-07-20T11:21:46;1.52;;;0.65;;
33104;SDS011;19476;51.448;6.674;2023-07-20T11:24:16;1.05;;;0.40;;
33104;SDS011;19476;51.448;6.674;2023-07-20T11:26:42;0.52;;;0.40;;
33104;SDS011;19476;51.448;6.674;2023-07-20T11:29:13;0.40;;;0.30;;
33104;SDS011;19476;51.448;6.674;2023-07-20T11:31:41;0.80;;;0.32;;
33104;SDS011;19476;51.448;6.674;2023-07-20T11:34:09;0.77;;;0.32;;
33104;SDS011;19476;51.448;6.674;2023-07-20T11:36:43;0.50;;;0.40;;
33104;SDS011;19476;51.448;6.674;2023-07-20T11:39:12;1.80;;;0.60;;
33104;SDS011;19476;51.448;6.674;2023-07-20T11:41:43;1.10;;;0.45;;
33104;SDS011;19476;51.448;6.674;2023-07-20T11:44:12;0.55;;;0.40;;
33104;SDS011;19476;51.448;6.674;2023-07-20T11:46:40;0.50;;;0.50;;
33104;SDS011;19476;51.448;6.674;2023-07-20T11:49:10;0.50;;;0.30;;
33104;SDS011;19476;51.448;6.674;2023-07-20T11:51:37;0.85;;;0.50;;
33104;SDS011;19476;51.448;6.674;2023-07-20T11:54:05;0.50;;;0.30;;
33104;SDS011;19476;51.448;6.674;2023-07-20T11:56:33;0.50;;;0.40;;
33104;SDS011;19476;51.448;6.674;2023-07-20T11:58:59;0.70;;;0.40;;
33104;SDS011;19476;51.448;6.674;2023-07-20T12:01:28;0.73;;;0.47;;
33104;SDS011;19476;51.448;6.674;2023-07-20T12:03:56;0.70;;;0.50;;
33104;SDS011;19476;51.448;6.674;2023-07-20T12:06:23;0.38;;;0.35;;
33104;SDS011;19476;51.448;6.674;2023-07-20T12:08:50;0.35;;;0.28;;
33104;SDS011;19476;51.448;6.674;2023-07-20T12:11:33;0.60;;;0.40;;
33104;SDS011;19476;51.448;6.674;2023-07-20T12:14:00;0.80;;;0.30;;
33104;SDS011;19476;51.448;6.674;2023-07-20T12:16:27;0.75;;;0.40;;
33104;SDS011;19476;51.448;6.674;2023-07-20T12:19:03;1.10;;;0.60;;
33104;SDS011;19476;51.448;6.674;2023-07-20T12:21:36;1.27;;;0.40;;
33104;SDS011;19476;51.448;6.674;2023-07-20T12:24:05;1.33;;;0.60;;
33104;SDS011;19476;51.448;6.674;2023-07-20T12:26:32;0.40;;;0.40;;
33104;SDS011;19476;51.448;6.674;2023-07-20T12:28:59;1.10;;;0.47;;
33104;SDS011;19476;51.448;6.674;2023-07-20T12:31:25;0.57;;;0.40;;
33104;SDS011;19476;51.448;6.674;2023-07-20T12:33:53;0.43;;;0.35;;
33104;SDS011;19476;51.448;6.674;2023-07-20T12:36:22;0.43;;;0.30;;
33104;SDS011;19476;51.448;6.674;2023-07-20T12:38:49;1.10;;;0.50;;
33104;SDS011;19476;51.448;6.674;2023-07-20T12:41:15;0.88;;;0.40;;
33104;SDS011;19476;51.448;6.674;2023-07-20T12:46:11;0.93;;;0.52;;
33104;SDS011;19476;51.448;6.674;2023-07-20T12:48:38;1.15;;;0.40;;
33104;SDS011;19476;51.448;6.674;2023-07-20T12:51:07;1.15;;;0.50;;
33104;SDS011;19476;51.448;6.674;2023-07-20T12:53:33;0.60;;;0.40;;
33104;SDS011;19476;51.448;6.674;2023-07-20T12:56:00;0.50;;;0.40;;
33104;SDS011;19476;51.448;6.674;2023-07-20T12:58:26;0.50;;;0.40;;
33104;SDS011;19476;51.448;6.674;2023-07-20T13:00:53;0.88;;;0.50;;
33104;SDS011;19476;51.448;6.674;2023-07-20T13:03:18;1.00;;;0.40;;
33104;SDS011;19476;51.448;6.674;2023-07-20T13:05:45;0.68;;;0.43;;
33104;SDS011;19476;51.448;6.674;2023-07-20T13:08:12;0.73;;;0.52;;
33104;SDS011;19476;51.448;6.674;2023-07-20T13:10:40;0.93;;;0.60;;
33104;SDS011;19476;51.448;6.674;2023-07-20T13:13:07;1.60;;;0.60;;
33104;SDS011;19476;51.448;6.674;2023-07-20T13:15:40;0.88;;;0.45;;
33104;SDS011;19476;51.448;6.674;2023-07-20T13:18:07;0.93;;;0.57;;
33104;SDS011;19476;51.448;6.674;2023-07-20T13:20:33;0.57;;;0.50;;
33104;SDS011;19476;51.448;6.674;2023-07-20T13:22:59;0.80;;;0.40;;
33104;SDS011;19476;51.448;6.674;2023-07-20T13:25:25;0.70;;;0.40;;
33104;SDS011;19476;51.448;6.674;2023-07-20T13:27:51;0.43;;;0.40;;
33104;SDS011;19476;51.448;6.674;2023-07-20T13:30:17;1.67;;;0.50;;
33104;SDS011;19476;51.448;6.674;2023-07-20T13:32:43;1.77;;;0.60;;
33104;SDS011;19476;51.448;6.674;2023-07-20T13:35:10;0.43;;;0.43;;
33104;SDS011;19476;51.448;6.674;2023-07-20T13:37:39;0.60;;;0.40;;
33104;SDS011;19476;51.448;6.674;2023-07-20T13:40:06;0.90;;;0.60;;
33104;SDS011;19476;51.448;6.674;2023-07-20T13:42:38;0.63;;;0.35;;
33104;SDS011;19476;51.448;6.674;2023-07-20T13:45:05;0.90;;;0.50;;
33104;SDS011;19476;51.448;6.674;2023-07-20T13:47:32;1.05;;;0.57;;
33104;SDS011;19476;51.448;6.674;2023-07-20T13:49:58;0.75;;;0.57;;
33104;SDS011;19476;51.448;6.674;2023-07-20T13:52:24;0.55;;;0.40;;
33104;SDS011;19476;51.448;6.674;2023-07-20T13:54:49;0.65;;;0.40;;
33104;SDS011;19476;51.448;6.674;2023-07-20T13:57:16;0.30;;;0.30;;
33104;SDS011;19476;51.448;6.674;2023-07-20T13:59:42;0.63;;;0.45;;
33104;SDS011;19476;51.448;6.674;2023-07-20T14:02:08;0.65;;;0.47;;
33104;SDS011;19476;51.448;6.674;2023-07-20T14:04:34;0.70;;;0.50;;
33104;SDS011;19476;51.448;6.674;2023-07-20T14:07:01;0.85;;;0.50;;
33104;SDS011;19476;51.448;6.674;2023-07-20T14:09:27;0.82;;;0.52;;
33104;SDS011;19476;51.448;6.674;2023-07-20T14:11:53;0.82;;;0.50;;
33104;SDS011;19476;51.448;6.674;2023-07-20T14:14:20;0.73;;;0.50;;
33104;SDS011;19476;51.448;6.674;2023-07-20T14:16:46;0.40;;;0.32;;
33104;SDS011;19476;51.448;6.674;2023-07-20T14:19:11;0.95;;;0.40;;
33104;SDS011;19476;51.448;6.674;2023-07-20T14:21:37;1.23;;;0.50;;
33104;SDS011;19476;51.448;6.674;2023-07-20T14:24:04;0.73;;;0.40;;
33104;SDS011;19476;51.448;6.674;2023-07-20T14:26:30;0.73;;;0.60;;
33104;SDS011;19476;51.448;6.674;2023-07-20T14:28:56;0.90;;;0.55;;
33104;SDS011;19476;51.448;6.674;2023-07-20T14:31:22;0.80;;;0.50;;
33104;SDS011;19476;51.448;6.674;2023-07-20T14:33:51;0.40;;;0.32;;
33104;SDS011;19476;51.448;6.674;2023-07-20T14:36:18;0.73;;;0.50;;
33104;SDS011;19476;51.448;6.674;2023-07-20T14:38:44;1.02;;;0.52;;
33104;SDS011;19476;51.448;6.674;2023-07-20T14:41:10;1.02;;;0.68;;
33104;SDS011;19476;51.448;6.674;2023-07-20T14:43:37;0.40;;;0.40;;
33104;SDS011;19476;51.448;6.674;2023-07-20T14:46:03;1.58;;;0.75;;
33104;SDS011;19476;51.448;6.674;2023-07-20T14:48:29;1.10;;;0.65;;
33104;SDS011;19476;51.448;6.674;2023-07-20T14:50:56;0.60;;;0.50;;
33104;SDS011;19476;51.448;6.674;2023-07-20T14:53:23;0.85;;;0.70;;
33104;SDS011;19476;51.448;6.674;2023-07-20T14:55:53;1.05;;;0.68;;
33104;SDS011;19476;51.448;6.674;2023-07-20T14:58:24;0.82;;;0.60;;
33104;SDS011;19476;51.448;6.674;2023-07-20T15:00:49;0.60;;;0.57;;
33104;SDS011;19476;51.448;6.674;2023-07-20T15:03:15;0.57;;;0.50;;
33104;SDS011;19476;51.448;6.674;2023-07-20T15:05:41;0.70;;;0.60;;
33104;SDS011;19476;51.448;6.674;2023-07-20T15:08:07;0.82;;;0.60;;
33104;SDS011;19476;51.448;6.674;2023-07-20T15:10:34;2.42;;;0.70;;